Terminal Aerodrome Forecast
Issued by NWS Houston/Galveston, TX

Home | Current Version | Previous Version | Text Only | Print | Product List | Glossary On
Versions: 1 2 3 4 5 6 7 8 9 10 11 12 13 14 15 16 17 18
000
FTUS44 KHGX 231720
TAFGLS
TAF
KGLS 231720Z 2318/2418 16012KT P6SM FEW025
     FM240500 16013KT P6SM SCT015
      TEMPO 2409/2412 P6SM BKN015
     FM241500 16013KT P6SM SCT025=

USA.gov is the U.S. government's official web portal to all federal, state and local government web resources and services.